sensor_id;sensor_type;location;lat;lon;timestamp;temperature;humidity
10581;DHT22;5338;51.500;6.802;2023-02-28T00:01:30;1.90;99.90
10581;DHT22;5338;51.500;6.802;2023-02-28T00:03:59;1.90;99.90
10581;DHT22;5338;51.500;6.802;2023-02-28T00:06:26;1.90;99.90
10581;DHT22;5338;51.500;6.802;2023-02-28T00:08:53;1.90;99.90
10581;DHT22;5338;51.500;6.802;2023-02-28T00:11:20;1.90;99.90
10581;DHT22;5338;51.500;6.802;2023-02-28T00:13:47;1.90;99.90
10581;DHT22;5338;51.500;6.802;2023-02-28T00:16:16;1.90;99.90
10581;DHT22;5338;51.500;6.802;2023-02-28T00:18:44;1.90;99.90
10581;DHT22;5338;51.500;6.802;2023-02-28T00:21:12;1.80;99.90
10581;DHT22;5338;51.500;6.802;2023-02-28T00:23:39;1.90;99.90
10581;DHT22;5338;51.500;6.802;2023-02-28T00:26:06;1.90;99.90
10581;DHT22;5338;51.500;6.802;2023-02-28T00:28:33;1.90;99.90
10581;DHT22;5338;51.500;6.802;2023-02-28T00:30:59;1.90;99.90
10581;DHT22;5338;51.500;6.802;2023-02-28T00:33:26;1.90;99.90
10581;DHT22;5338;51.500;6.802;2023-02-28T00:36:02;1.90;99.90
10581;DHT22;5338;51.500;6.802;2023-02-28T00:38:31;1.90;99.90
10581;DHT22;5338;51.500;6.802;2023-02-28T00:40:58;1.90;99.90
10581;DHT22;5338;51.500;6.802;2023-02-28T00:43:30;1.90;99.90
10581;DHT22;5338;51.500;6.802;2023-02-28T00:45:57;1.90;99.90
10581;DHT22;5338;51.500;6.802;2023-02-28T00:48:24;1.90;99.90
10581;DHT22;5338;51.500;6.802;2023-02-28T00:50:51;1.90;99.90
10581;DHT22;5338;51.500;6.802;2023-02-28T00:53:18;1.90;99.90
10581;DHT22;5338;51.500;6.802;2023-02-28T00:55:46;1.90;99.90
10581;DHT22;5338;51.500;6.802;2023-02-28T00:58:12;1.80;99.90
10581;DHT22;5338;51.500;6.802;2023-02-28T01:00:39;1.80;99.90
10581;DHT22;5338;51.500;6.802;2023-02-28T01:03:06;1.80;99.90
10581;DHT22;5338;51.500;6.802;2023-02-28T01:05:33;1.80;99.90
10581;DHT22;5338;51.500;6.802;2023-02-28T01:08:00;1.80;99.90
10581;DHT22;5338;51.500;6.802;2023-02-28T01:10:27;1.80;99.90
10581;DHT22;5338;51.500;6.802;2023-02-28T01:12:58;1.80;99.90
10581;DHT22;5338;51.500;6.802;2023-02-28T01:15:24;1.80;99.90
10581;DHT22;5338;51.500;6.802;2023-02-28T01:17:51;1.80;99.90
10581;DHT22;5338;51.500;6.802;2023-02-28T01:20:18;1.80;99.90
10581;DHT22;5338;51.500;6.802;2023-02-28T01:22:45;1.80;99.90
10581;DHT22;5338;51.500;6.802;2023-02-28T01:25:12;1.80;99.90
10581;DHT22;5338;51.500;6.802;2023-02-28T01:27:39;1.80;99.90
10581;DHT22;5338;51.500;6.802;2023-02-28T01:30:10;1.90;99.90
10581;DHT22;5338;51.500;6.802;2023-02-28T01:32:37;1.80;99.90
10581;DHT22;5338;51.500;6.802;2023-02-28T01:35:04;1.80;99.90
10581;DHT22;5338;51.500;6.802;2023-02-28T01:37:31;1.80;99.90
10581;DHT22;5338;51.500;6.802;2023-02-28T01:39:58;1.80;99.90
10581;DHT22;5338;51.500;6.802;2023-02-28T01:42:25;1.70;99.90
10581;DHT22;5338;51.500;6.802;2023-02-28T01:44:59;1.70;99.90
10581;DHT22;5338;51.500;6.802;2023-02-28T01:47:31;1.70;99.90
10581;DHT22;5338;51.500;6.802;2023-02-28T01:50:01;1.70;99.90
10581;DHT22;5338;51.500;6.802;2023-02-28T01:52:28;1.70;99.90
10581;DHT22;5338;51.500;6.802;2023-02-28T01:54:57;1.60;99.90
10581;DHT22;5338;51.500;6.802;2023-02-28T01:57:27;1.60;99.90
10581;DHT22;5338;51.500;6.802;2023-02-28T01:59:58;1.60;99.90
10581;DHT22;5338;51.500;6.802;2023-02-28T02:02:28;1.60;99.90
10581;DHT22;5338;51.500;6.802;2023-02-28T02:04:57;1.50;99.90
10581;DHT22;5338;51.500;6.802;2023-02-28T02:07:29;1.50;99.90
10581;DHT22;5338;51.500;6.802;2023-02-28T02:10:03;1.50;99.90
10581;DHT22;5338;51.500;6.802;2023-02-28T02:12:45;1.50;99.90
10581;DHT22;5338;51.500;6.802;2023-02-28T02:15:16;1.40;99.90
10581;DHT22;5338;51.500;6.802;2023-02-28T02:17:49;1.40;99.90
10581;DHT22;5338;51.500;6.802;2023-02-28T02:26:23;1.30;99.90
10581;DHT22;5338;51.500;6.802;2023-02-28T02:29:15;1.20;99.90
10581;DHT22;5338;51.500;6.802;2023-02-28T02:31:58;1.20;99.90
10581;DHT22;5338;51.500;6.802;2023-02-28T02:34:53;1.20;99.90
10581;DHT22;5338;51.500;6.802;2023-02-28T02:37:29;1.20;99.90
10581;DHT22;5338;51.500;6.802;2023-02-28T02:40:03;1.20;99.90
10581;DHT22;5338;51.500;6.802;2023-02-28T02:42:40;1.10;99.90
10581;DHT22;5338;51.500;6.802;2023-02-28T02:45:12;1.10;99.90
10581;DHT22;5338;51.500;6.802;2023-02-28T02:47:43;1.10;99.90
10581;DHT22;5338;51.500;6.802;2023-02-28T02:50:17;1.00;99.90
10581;DHT22;5338;51.500;6.802;2023-02-28T02:52:49;1.10;99.90
10581;DHT22;5338;51.500;6.802;2023-02-28T02:55:18;1.00;99.90
10581;DHT22;5338;51.500;6.802;2023-02-28T02:57:48;1.00;99.90
10581;DHT22;5338;51.500;6.802;2023-02-28T03:00:17;1.00;99.90
10581;DHT22;5338;51.500;6.802;2023-02-28T03:02:47;1.00;99.90
10581;DHT22;5338;51.500;6.802;2023-02-28T03:05:19;0.90;99.90
10581;DHT22;5338;51.500;6.802;2023-02-28T03:07:46;0.90;99.90
10581;DHT22;5338;51.500;6.802;2023-02-28T03:10:29;0.90;99.90
10581;DHT22;5338;51.500;6.802;2023-02-28T03:13:05;0.90;99.90
10581;DHT22;5338;51.500;6.802;2023-02-28T03:15:40;0.90;99.90
10581;DHT22;5338;51.500;6.802;2023-02-28T03:18:18;0.80;99.90
10581;DHT22;5338;51.500;6.802;2023-02-28T03:20:59;0.80;99.90
10581;DHT22;5338;51.500;6.802;2023-02-28T03:23:32;0.80;99.90
10581;DHT22;5338;51.500;6.802;2023-02-28T03:26:04;0.80;99.90
10581;DHT22;5338;51.500;6.802;2023-02-28T03:28:40;0.80;99.90
10581;DHT22;5338;51.500;6.802;2023-02-28T03:31:16;0.70;99.90
10581;DHT22;5338;51.500;6.802;2023-02-28T03:33:46;0.70;99.90
10581;DHT22;5338;51.500;6.802;2023-02-28T03:36:24;0.70;99.90
10581;DHT22;5338;51.500;6.802;2023-02-28T03:38:56;0.70;99.90
10581;DHT22;5338;51.500;6.802;2023-02-28T03:41:32;0.60;99.90
10581;DHT22;5338;51.500;6.802;2023-02-28T03:44:04;0.60;99.90
10581;DHT22;5338;51.500;6.802;2023-02-28T03:46:37;0.60;99.90
10581;DHT22;5338;51.500;6.802;2023-02-28T03:49:12;0.50;99.90
10581;DHT22;5338;51.500;6.802;2023-02-28T03:51:45;0.50;99.90
10581;DHT22;5338;51.500;6.802;2023-02-28T03:54:15;0.50;99.90
10581;DHT22;5338;51.500;6.802;2023-02-28T03:56:48;0.50;99.90
10581;DHT22;5338;51.500;6.802;2023-02-28T03:59:20;0.60;99.90
10581;DHT22;5338;51.500;6.802;2023-02-28T04:01:49;0.60;99.90
10581;DHT22;5338;51.500;6.802;2023-02-28T04:04:17;0.60;99.90
10581;DHT22;5338;51.500;6.802;2023-02-28T04:06:49;0.50;99.90
10581;DHT22;5338;51.500;6.802;2023-02-28T04:09:16;0.50;99.90
10581;DHT22;5338;51.500;6.802;2023-02-28T04:11:45;0.60;99.90
10581;DHT22;5338;51.500;6.802;2023-02-28T04:14:14;0.50;99.90
10581;DHT22;5338;51.500;6.802;2023-02-28T04:16:41;0.50;99.90
10581;DHT22;5338;51.500;6.802;2023-02-28T04:19:10;0.40;99.90
10581;DHT22;5338;51.500;6.802;2023-02-28T04:21:39;0.50;99.90
10581;DHT22;5338;51.500;6.802;2023-02-28T04:24:10;0.40;99.90
10581;DHT22;5338;51.500;6.802;2023-02-28T04:26:41;0.40;99.90
10581;DHT22;5338;51.500;6.802;2023-02-28T04:29:10;0.40;99.90
10581;DHT22;5338;51.500;6.802;2023-02-28T04:31:37;0.30;99.90
10581;DHT22;5338;51.500;6.802;2023-02-28T04:34:05;0.30;99.90
10581;DHT22;5338;51.500;6.802;2023-02-28T04:36:32;0.30;99.90
10581;DHT22;5338;51.500;6.802;2023-02-28T04:38:59;0.30;99.90
10581;DHT22;5338;51.500;6.802;2023-02-28T04:41:27;0.30;99.90
10581;DHT22;5338;51.500;6.802;2023-02-28T04:43:54;0.30;99.90
10581;DHT22;5338;51.500;6.802;2023-02-28T04:46:22;0.30;99.90
10581;DHT22;5338;51.500;6.802;2023-02-28T04:48:49;0.30;99.90
10581;DHT22;5338;51.500;6.802;2023-02-28T04:51:18;0.30;99.90
10581;DHT22;5338;51.500;6.802;2023-02-28T04:53:45;0.30;99.90
10581;DHT22;5338;51.500;6.802;2023-02-28T04:56:15;0.30;99.90
10581;DHT22;5338;51.500;6.802;2023-02-28T04:58:44;0.20;99.90
10581;DHT22;5338;51.500;6.802;2023-02-28T05:01:20;0.20;99.90
10581;DHT22;5338;51.500;6.802;2023-02-28T05:03:48;0.30;99.90
10581;DHT22;5338;51.500;6.802;2023-02-28T05:06:16;0.20;99.90
10581;DHT22;5338;51.500;6.802;2023-02-28T05:08:43;0.20;99.90
10581;DHT22;5338;51.500;6.802;2023-02-28T05:11:15;0.20;99.90
10581;DHT22;5338;51.500;6.802;2023-02-28T05:13:44;0.20;99.90
10581;DHT22;5338;51.500;6.802;2023-02-28T05:16:12;0.20;99.90
10581;DHT22;5338;51.500;6.802;2023-02-28T05:18:39;0.20;99.90
10581;DHT22;5338;51.500;6.802;2023-02-28T05:21:06;0.20;99.90
10581;DHT22;5338;51.500;6.802;2023-02-28T05:23:43;0.20;99.90
10581;DHT22;5338;51.500;6.802;2023-02-28T05:26:10;0.20;99.90
10581;DHT22;5338;51.500;6.802;2023-02-28T05:28:38;0.20;99.90
10581;DHT22;5338;51.500;6.802;2023-02-28T05:31:06;0.20;99.90
10581;DHT22;5338;51.500;6.802;2023-02-28T05:33:33;0.20;99.90
10581;DHT22;5338;51.500;6.802;2023-02-28T05:36:00;0.10;99.90
10581;DHT22;5338;51.500;6.802;2023-02-28T05:38:27;0.10;99.90
10581;DHT22;5338;51.500;6.802;2023-02-28T05:40:54;0.00;99.90
10581;DHT22;5338;51.500;6.802;2023-02-28T05:43:21;0.00;99.90
10581;DHT22;5338;51.500;6.802;2023-02-28T05:45:48;-0.10;99.90
10581;DHT22;5338;51.500;6.802;2023-02-28T05:48:17;-0.10;99.90
10581;DHT22;5338;51.500;6.802;2023-02-28T05:50:44;-0.10;99.90
10581;DHT22;5338;51.500;6.802;2023-02-28T05:53:11;-0.10;99.90
10581;DHT22;5338;51.500;6.802;2023-02-28T05:55:38;-0.10;99.90
10581;DHT22;5338;51.500;6.802;2023-02-28T05:58:06;-0.10;99.90
10581;DHT22;5338;51.500;6.802;2023-02-28T06:00:33;-0.10;99.90
10581;DHT22;5338;51.500;6.802;2023-02-28T06:03:00;-0.10;99.90
10581;DHT22;5338;51.500;6.802;2023-02-28T06:05:29;-0.10;99.90
10581;DHT22;5338;51.500;6.802;2023-02-28T06:07:55;-0.10;99.90
10581;DHT22;5338;51.500;6.802;2023-02-28T06:10:22;-0.10;99.90
10581;DHT22;5338;51.500;6.802;2023-02-28T06:12:50;-0.10;99.90
10581;DHT22;5338;51.500;6.802;2023-02-28T06:15:17;-0.10;99.90
10581;DHT22;5338;51.500;6.802;2023-02-28T06:17:44;-0.10;99.90
10581;DHT22;5338;51.500;6.802;2023-02-28T06:20:12;-0.10;99.90
10581;DHT22;5338;51.500;6.802;2023-02-28T06:22:40;-0.10;99.90
10581;DHT22;5338;51.500;6.802;2023-02-28T06:25:09;-0.10;99.90
10581;DHT22;5338;51.500;6.802;2023-02-28T06:27:37;-0.10;99.90
10581;DHT22;5338;51.500;6.802;2023-02-28T06:30:04;-0.10;99.90
10581;DHT22;5338;51.500;6.802;2023-02-28T06:32:32;-0.10;99.90
10581;DHT22;5338;51.500;6.802;2023-02-28T06:35:02;-0.10;99.90
10581;DHT22;5338;51.500;6.802;2023-02-28T06:37:30;-0.10;99.90
10581;DHT22;5338;51.500;6.802;2023-02-28T06:40:00;-0.10;99.90
10581;DHT22;5338;51.500;6.802;2023-02-28T06:42:27;0.00;99.90
10581;DHT22;5338;51.500;6.802;2023-02-28T06:44:56;0.10;99.90
10581;DHT22;5338;51.500;6.802;2023-02-28T06:47:23;0.50;99.90
10581;DHT22;5338;51.500;6.802;2023-02-28T06:49:50;0.90;99.90
10581;DHT22;5338;51.500;6.802;2023-02-28T06:52:17;1.70;99.90
10581;DHT22;5338;51.500;6.802;2023-02-28T06:54:44;2.30;99.90
10581;DHT22;5338;51.500;6.802;2023-02-28T06:57:12;2.80;99.90
10581;DHT22;5338;51.500;6.802;2023-02-28T06:59:40;3.40;97.10
10581;DHT22;5338;51.500;6.802;2023-02-28T07:02:08;4.00;93.50
10581;DHT22;5338;51.500;6.802;2023-02-28T07:04:35;4.20;83.40
10581;DHT22;5338;51.500;6.802;2023-02-28T07:07:02;4.60;73.70
10581;DHT22;5338;51.500;6.802;2023-02-28T07:09:29;4.60;64.60
10581;DHT22;5338;51.500;6.802;2023-02-28T07:11:56;4.90;65.70
10581;DHT22;5338;51.500;6.802;2023-02-28T07:14:24;4.90;60.30
10581;DHT22;5338;51.500;6.802;2023-02-28T07:16:51;4.80;59.00
10581;DHT22;5338;51.500;6.802;2023-02-28T07:19:18;4.70;57.90
10581;DHT22;5338;51.500;6.802;2023-02-28T07:21:45;4.40;57.60
10581;DHT22;5338;51.500;6.802;2023-02-28T07:24:11;4.10;58.30
10581;DHT22;5338;51.500;6.802;2023-02-28T07:26:41;4.00;59.60
10581;DHT22;5338;51.500;6.802;2023-02-28T07:29:08;3.90;62.00
10581;DHT22;5338;51.500;6.802;2023-02-28T07:31:36;4.30;62.60
10581;DHT22;5338;51.500;6.802;2023-02-28T07:34:03;4.50;60.50
10581;DHT22;5338;51.500;6.802;2023-02-28T07:36:30;4.60;58.80
10581;DHT22;5338;51.500;6.802;2023-02-28T07:38:58;4.50;56.60
10581;DHT22;5338;51.500;6.802;2023-02-28T07:41:25;4.60;56.80
10581;DHT22;5338;51.500;6.802;2023-02-28T07:43:53;4.70;56.20
10581;DHT22;5338;51.500;6.802;2023-02-28T07:46:21;4.60;53.50
10581;DHT22;5338;51.500;6.802;2023-02-28T07:48:49;4.70;51.60
10581;DHT22;5338;51.500;6.802;2023-02-28T07:51:17;4.80;50.60
10581;DHT22;5338;51.500;6.802;2023-02-28T07:53:43;4.60;48.70
10581;DHT22;5338;51.500;6.802;2023-02-28T07:56:10;4.80;48.30
10581;DHT22;5338;51.500;6.802;2023-02-28T07:58:37;4.80;46.50
10581;DHT22;5338;51.500;6.802;2023-02-28T08:01:08;4.80;46.20
10581;DHT22;5338;51.500;6.802;2023-02-28T08:03:36;5.00;46.10
10581;DHT22;5338;51.500;6.802;2023-02-28T08:06:07;5.10;45.50
10581;DHT22;5338;51.500;6.802;2023-02-28T08:08:34;5.20;45.00
10581;DHT22;5338;51.500;6.802;2023-02-28T08:11:02;5.30;43.40
10581;DHT22;5338;51.500;6.802;2023-02-28T08:13:29;5.40;41.90
10581;DHT22;5338;51.500;6.802;2023-02-28T08:15:56;5.40;41.30
10581;DHT22;5338;51.500;6.802;2023-02-28T08:18:23;5.40;38.90
10581;DHT22;5338;51.500;6.802;2023-02-28T08:20:50;5.30;39.70
10581;DHT22;5338;51.500;6.802;2023-02-28T08:23:18;5.50;39.00
10581;DHT22;5338;51.500;6.802;2023-02-28T08:25:53;5.70;37.90
10581;DHT22;5338;51.500;6.802;2023-02-28T08:28:20;5.70;36.60
10581;DHT22;5338;51.500;6.802;2023-02-28T08:30:47;5.60;34.60
10581;DHT22;5338;51.500;6.802;2023-02-28T08:33:14;5.80;34.30
10581;DHT22;5338;51.500;6.802;2023-02-28T08:35:41;6.10;34.10
10581;DHT22;5338;51.500;6.802;2023-02-28T08:38:08;6.40;33.00
10581;DHT22;5338;51.500;6.802;2023-02-28T08:40:39;6.20;31.00
10581;DHT22;5338;51.500;6.802;2023-02-28T08:43:06;6.20;30.50
10581;DHT22;5338;51.500;6.802;2023-02-28T08:45:33;6.10;30.00
10581;DHT22;5338;51.500;6.802;2023-02-28T08:48:00;6.30;31.00
10581;DHT22;5338;51.500;6.802;2023-02-28T08:50:27;6.60;30.70
10581;DHT22;5338;51.500;6.802;2023-02-28T08:52:53;6.80;29.10
10581;DHT22;5338;51.500;6.802;2023-02-28T08:55:20;6.40;28.00
10581;DHT22;5338;51.500;6.802;2023-02-28T08:57:48;6.40;28.60
10581;DHT22;5338;51.500;6.802;2023-02-28T09:00:16;6.40;28.50
10581;DHT22;5338;51.500;6.802;2023-02-28T09:02:43;6.70;29.20
10581;DHT22;5338;51.500;6.802;2023-02-28T09:05:10;6.70;27.90
10581;DHT22;5338;51.500;6.802;2023-02-28T09:07:37;6.80;25.40
10581;DHT22;5338;51.500;6.802;2023-02-28T09:10:04;6.70;24.80
10581;DHT22;5338;51.500;6.802;2023-02-28T09:12:33;6.80;25.30
10581;DHT22;5338;51.500;6.802;2023-02-28T09:15:03;6.50;24.30
10581;DHT22;5338;51.500;6.802;2023-02-28T09:17:30;6.30;24.00
10581;DHT22;5338;51.500;6.802;2023-02-28T09:19:57;6.30;24.40
10581;DHT22;5338;51.500;6.802;2023-02-28T09:22:24;6.40;24.40
10581;DHT22;5338;51.500;6.802;2023-02-28T09:24:51;6.40;23.80
10581;DHT22;5338;51.500;6.802;2023-02-28T09:27:18;6.60;23.20
10581;DHT22;5338;51.500;6.802;2023-02-28T09:29:45;6.40;22.20
10581;DHT22;5338;51.500;6.802;2023-02-28T09:32:13;6.20;20.90
10581;DHT22;5338;51.500;6.802;2023-02-28T09:34:41;6.30;21.70
10581;DHT22;5338;51.500;6.802;2023-02-28T09:37:08;6.40;20.60
10581;DHT22;5338;51.500;6.802;2023-02-28T09:39:35;6.40;20.90
10581;DHT22;5338;51.500;6.802;2023-02-28T09:42:02;6.60;20.30
10581;DHT22;5338;51.500;6.802;2023-02-28T09:44:33;6.70;19.90
10581;DHT22;5338;51.500;6.802;2023-02-28T09:47:07;6.80;19.50
10581;DHT22;5338;51.500;6.802;2023-02-28T09:49:41;7.20;19.10
10581;DHT22;5338;51.500;6.802;2023-02-28T09:52:12;7.40;18.60
10581;DHT22;5338;51.500;6.802;2023-02-28T09:54:40;7.60;18.30
10581;DHT22;5338;51.500;6.802;2023-02-28T09:57:19;7.40;16.40
10581;DHT22;5338;51.500;6.802;2023-02-28T09:59:59;7.40;17.10
10581;DHT22;5338;51.500;6.802;2023-02-28T10:02:52;7.10;16.40
10581;DHT22;5338;51.500;6.802;2023-02-28T10:05:23;7.10;17.50
10581;DHT22;5338;51.500;6.802;2023-02-28T10:08:00;6.90;17.10
10581;DHT22;5338;51.500;6.802;2023-02-28T10:10:37;7.20;17.40
10581;DHT22;5338;51.500;6.802;2023-02-28T10:13:11;7.50;16.90
10581;DHT22;5338;51.500;6.802;2023-02-28T10:15:40;7.60;16.10
10581;DHT22;5338;51.500;6.802;2023-02-28T10:18:12;7.90;16.70
10581;DHT22;5338;51.500;6.802;2023-02-28T10:20:43;8.20;16.60
10581;DHT22;5338;51.500;6.802;2023-02-28T10:23:14;8.40;16.70
10581;DHT22;5338;51.500;6.802;2023-02-28T10:25:45;8.40;14.20
10581;DHT22;5338;51.500;6.802;2023-02-28T10:28:15;7.50;13.90
10581;DHT22;5338;51.500;6.802;2023-02-28T10:30:46;7.10;15.80
10581;DHT22;5338;51.500;6.802;2023-02-28T10:33:22;7.00;15.80
10581;DHT22;5338;51.500;6.802;2023-02-28T10:35:52;7.10;16.20
10581;DHT22;5338;51.500;6.802;2023-02-28T10:38:21;7.10;15.30
10581;DHT22;5338;51.500;6.802;2023-02-28T10:40:49;7.40;16.40
10581;DHT22;5338;51.500;6.802;2023-02-28T10:43:21;7.70;16.30
10581;DHT22;5338;51.500;6.802;2023-02-28T10:45:57;7.90;16.10
10581;DHT22;5338;51.500;6.802;2023-02-28T10:48:33;7.70;16.20
10581;DHT22;5338;51.500;6.802;2023-02-28T10:51:03;7.20;15.90
10581;DHT22;5338;51.500;6.802;2023-02-28T10:53:33;6.40;15.20
10581;DHT22;5338;51.500;6.802;2023-02-28T10:56:03;6.30;16.60
10581;DHT22;5338;51.500;6.802;2023-02-28T10:58:46;5.90;17.20
10581;DHT22;5338;51.500;6.802;2023-02-28T11:01:16;5.80;17.50
10581;DHT22;5338;51.500;6.802;2023-02-28T11:03:43;6.00;18.10
10581;DHT22;5338;51.500;6.802;2023-02-28T11:06:17;6.50;17.90
10581;DHT22;5338;51.500;6.802;2023-02-28T11:08:51;7.00;17.90
10581;DHT22;5338;51.500;6.802;2023-02-28T11:11:19;7.60;16.90
10581;DHT22;5338;51.500;6.802;2023-02-28T11:13:50;7.70;15.80
10581;DHT22;5338;51.500;6.802;2023-02-28T11:16:18;7.50;14.70
10581;DHT22;5338;51.500;6.802;2023-02-28T11:18:48;7.30;15.30
10581;DHT22;5338;51.500;6.802;2023-02-28T11:21:21;6.90;15.60
10581;DHT22;5338;51.500;6.802;2023-02-28T11:23:50;6.60;15.90
10581;DHT22;5338;51.500;6.802;2023-02-28T11:26:37;6.70;16.50
10581;DHT22;5338;51.500;6.802;2023-02-28T11:29:19;6.70;16.30
10581;DHT22;5338;51.500;6.802;2023-02-28T11:32:13;6.60;16.10
10581;DHT22;5338;51.500;6.802;2023-02-28T11:34:43;6.30;16.30
10581;DHT22;5338;51.500;6.802;2023-02-28T11:37:15;5.90;16.10
10581;DHT22;5338;51.500;6.802;2023-02-28T11:39:42;6.10;17.20
10581;DHT22;5338;51.500;6.802;2023-02-28T11:42:27;6.20;16.20
10581;DHT22;5338;51.500;6.802;2023-02-28T11:45:07;5.90;16.50
10581;DHT22;5338;51.500;6.802;2023-02-28T11:47:44;6.40;16.50
10581;DHT22;5338;51.500;6.802;2023-02-28T11:50:22;7.30;17.40
10581;DHT22;5338;51.500;6.802;2023-02-28T11:52:56;7.70;15.40
10581;DHT22;5338;51.500;6.802;2023-02-28T11:55:27;8.10;15.30
10581;DHT22;5338;51.500;6.802;2023-02-28T11:58:22;8.30;14.40
10581;DHT22;5338;51.500;6.802;2023-02-28T12:01:07;8.60;14.90
10581;DHT22;5338;51.500;6.802;2023-02-28T12:03:44;8.80;14.70
10581;DHT22;5338;51.500;6.802;2023-02-28T12:06:21;9.20;14.80
10581;DHT22;5338;51.500;6.802;2023-02-28T12:08:58;9.20;13.50
10581;DHT22;5338;51.500;6.802;2023-02-28T12:11:37;9.10;13.40
10581;DHT22;5338;51.500;6.802;2023-02-28T12:14:30;9.10;13.20
10581;DHT22;5338;51.500;6.802;2023-02-28T12:17:03;9.30;13.50
10581;DHT22;5338;51.500;6.802;2023-02-28T12:19:39;9.20;13.10
10581;DHT22;5338;51.500;6.802;2023-02-28T12:22:30;9.00;13.10
10581;DHT22;5338;51.500;6.802;2023-02-28T12:25:34;9.40;13.60
10581;DHT22;5338;51.500;6.802;2023-02-28T12:28:08;9.40;13.00
10581;DHT22;5338;51.500;6.802;2023-02-28T12:30:44;9.70;13.40
10581;DHT22;5338;51.500;6.802;2023-02-28T12:33:16;9.70;13.00
10581;DHT22;5338;51.500;6.802;2023-02-28T12:35:49;9.70;12.90
10581;DHT22;5338;51.500;6.802;2023-02-28T12:38:20;9.90;13.40
10581;DHT22;5338;51.500;6.802;2023-02-28T12:40:53;9.90;13.20
10581;DHT22;5338;51.500;6.802;2023-02-28T12:43:27;10.00;12.50
10581;DHT22;5338;51.500;6.802;2023-02-28T12:46:02;9.80;12.00
10581;DHT22;5338;51.500;6.802;2023-02-28T12:48:41;9.90;12.70
10581;DHT22;5338;51.500;6.802;2023-02-28T12:51:12;9.50;12.50
10581;DHT22;5338;51.500;6.802;2023-02-28T12:54:00;9.40;12.80
10581;DHT22;5338;51.500;6.802;2023-02-28T12:59:57;9.40;13.00
10581;DHT22;5338;51.500;6.802;2023-02-28T13:03:07;8.80;13.10
10581;DHT22;5338;51.500;6.802;2023-02-28T13:05:54;8.80;13.90
10581;DHT22;5338;51.500;6.802;2023-02-28T13:08:51;8.50;13.90
10581;DHT22;5338;51.500;6.802;2023-02-28T13:11:25;8.60;14.10
10581;DHT22;5338;51.500;6.802;2023-02-28T13:14:01;8.40;14.20
10581;DHT22;5338;51.500;6.802;2023-02-28T13:16:59;8.10;14.10
10581;DHT22;5338;51.500;6.802;2023-02-28T13:19:30;7.90;14.90
10581;DHT22;5338;51.500;6.802;2023-02-28T13:21:57;7.70;15.30
10581;DHT22;5338;51.500;6.802;2023-02-28T13:24:43;7.70;16.20
10581;DHT22;5338;51.500;6.802;2023-02-28T13:27:36;7.70;17.80
10581;DHT22;5338;51.500;6.802;2023-02-28T13:33:22;7.60;17.10
10581;DHT22;5338;51.500;6.802;2023-02-28T13:36:10;7.70;17.80
10581;DHT22;5338;51.500;6.802;2023-02-28T13:38:50;7.70;16.90
10581;DHT22;5338;51.500;6.802;2023-02-28T13:41:44;7.40;16.50
10581;DHT22;5338;51.500;6.802;2023-02-28T13:44:13;7.50;17.50
10581;DHT22;5338;51.500;6.802;2023-02-28T13:50:22;7.70;18.00
10581;DHT22;5338;51.500;6.802;2023-02-28T13:53:01;7.80;19.00
10581;DHT22;5338;51.500;6.802;2023-02-28T13:55:34;7.90;19.20
10581;DHT22;5338;51.500;6.802;2023-02-28T13:58:12;8.10;18.70
10581;DHT22;5338;51.500;6.802;2023-02-28T14:01:05;8.30;19.30
10581;DHT22;5338;51.500;6.802;2023-02-28T14:04:01;8.40;19.20
10581;DHT22;5338;51.500;6.802;2023-02-28T14:06:35;8.50;19.50
10581;DHT22;5338;51.500;6.802;2023-02-28T14:09:15;8.40;19.60
10581;DHT22;5338;51.500;6.802;2023-02-28T14:11:44;8.40;20.60
10581;DHT22;5338;51.500;6.802;2023-02-28T14:17:24;8.40;19.30
10581;DHT22;5338;51.500;6.802;2023-02-28T14:19:52;8.10;19.60
10581;DHT22;5338;51.500;6.802;2023-02-28T14:22:43;7.90;19.40
10581;DHT22;5338;51.500;6.802;2023-02-28T14:25:18;7.90;19.90
10581;DHT22;5338;51.500;6.802;2023-02-28T14:27:50;8.10;21.30
10581;DHT22;5338;51.500;6.802;2023-02-28T14:30:49;8.10;20.20
10581;DHT22;5338;51.500;6.802;2023-02-28T14:33:23;8.20;20.20
10581;DHT22;5338;51.500;6.802;2023-02-28T14:36:07;8.30;20.30
10581;DHT22;5338;51.500;6.802;2023-02-28T14:38:43;7.90;20.20
10581;DHT22;5338;51.500;6.802;2023-02-28T14:41:19;7.80;20.00
10581;DHT22;5338;51.500;6.802;2023-02-28T14:43:52;7.90;20.80
10581;DHT22;5338;51.500;6.802;2023-02-28T14:46:20;7.70;19.60
10581;DHT22;5338;51.500;6.802;2023-02-28T14:48:48;7.70;20.10
10581;DHT22;5338;51.500;6.802;2023-02-28T14:51:19;7.70;20.40
10581;DHT22;5338;51.500;6.802;2023-02-28T14:53:51;7.60;20.30
10581;DHT22;5338;51.500;6.802;2023-02-28T14:56:24;7.50;19.90
10581;DHT22;5338;51.500;6.802;2023-02-28T14:58:53;7.70;21.60
10581;DHT22;5338;51.500;6.802;2023-02-28T15:01:21;7.70;19.90
10581;DHT22;5338;51.500;6.802;2023-02-28T15:03:48;7.60;19.60
10581;DHT22;5338;51.500;6.802;2023-02-28T15:06:23;7.40;20.60
10581;DHT22;5338;51.500;6.802;2023-02-28T15:09:14;7.10;21.10
10581;DHT22;5338;51.500;6.802;2023-02-28T15:11:44;7.20;22.40
10581;DHT22;5338;51.500;6.802;2023-02-28T15:14:16;7.20;22.10
10581;DHT22;5338;51.500;6.802;2023-02-28T15:16:46;7.20;22.50
10581;DHT22;5338;51.500;6.802;2023-02-28T15:19:18;7.20;22.20
10581;DHT22;5338;51.500;6.802;2023-02-28T15:21:49;7.00;22.20
10581;DHT22;5338;51.500;6.802;2023-02-28T15:24:30;7.20;22.60
10581;DHT22;5338;51.500;6.802;2023-02-28T15:26:59;7.00;21.60
10581;DHT22;5338;51.500;6.802;2023-02-28T15:29:28;6.90;22.60
10581;DHT22;5338;51.500;6.802;2023-02-28T15:31:57;6.90;22.60
10581;DHT22;5338;51.500;6.802;2023-02-28T15:34:33;6.90;22.90
10581;DHT22;5338;51.500;6.802;2023-02-28T15:37:00;7.00;23.30
10581;DHT22;5338;51.500;6.802;2023-02-28T15:39:29;7.00;23.30
10581;DHT22;5338;51.500;6.802;2023-02-28T15:42:10;6.80;22.30
10581;DHT22;5338;51.500;6.802;2023-02-28T15:44:37;6.90;23.30
10581;DHT22;5338;51.500;6.802;2023-02-28T15:47:05;6.90;22.60
10581;DHT22;5338;51.500;6.802;2023-02-28T15:49:39;6.70;21.90
10581;DHT22;5338;51.500;6.802;2023-02-28T15:52:13;6.70;22.60
10581;DHT22;5338;51.500;6.802;2023-02-28T15:54:43;6.60;21.90
10581;DHT22;5338;51.500;6.802;2023-02-28T15:57:15;6.50;22.10
10581;DHT22;5338;51.500;6.802;2023-02-28T15:59:49;6.40;21.70
10581;DHT22;5338;51.500;6.802;2023-02-28T16:02:19;6.40;22.50
10581;DHT22;5338;51.500;6.802;2023-02-28T16:04:59;6.30;22.70
10581;DHT22;5338;51.500;6.802;2023-02-28T16:07:27;6.10;23.20
10581;DHT22;5338;51.500;6.802;2023-02-28T16:09:56;6.00;23.00
10581;DHT22;5338;51.500;6.802;2023-02-28T16:12:26;6.00;23.20
10581;DHT22;5338;51.500;6.802;2023-02-28T16:14:55;5.90;23.10
10581;DHT22;5338;51.500;6.802;2023-02-28T16:17:25;5.90;23.90
10581;DHT22;5338;51.500;6.802;2023-02-28T16:19:54;5.70;23.50
10581;DHT22;5338;51.500;6.802;2023-02-28T16:22:22;5.70;23.90
10581;DHT22;5338;51.500;6.802;2023-02-28T16:24:49;5.60;24.30
10581;DHT22;5338;51.500;6.802;2023-02-28T16:27:20;5.60;24.30
